< < Back
Terminal Aerodrome Forecast


Current Version              Previous Versions:   1  2  3  4  5  6  7  8  9  

Terminal Aerodrome Forecast

810
FTUS42 KTAE 271120
TAFABY
TAF
KABY 271120Z 2712/2812 01004KT P6SM BKN200
     FM271400 VRB05KT P6SM SCT100 OVC250=



Latest METAR

350
SAUS70 KWBC 271700 RRC
MTRABY
METAR KABY 271653Z 01004KT 10SM CLR 21/14 A2987 RMK AO2 SLP112
T02060144


USA.gov is the U.S. government's official web portal to all federal, state and local government web resources and services.